Latest Weather Observations for Grafton Airport

IDN60801

Issued at 9:32 pm EST Saturday 1 August 2015 (issued every 30 minutes, with the page automatically refreshed every 10 minutes)

About weather observations | Map of weather stations | Latest weather observations for NSW | Other Formats
Station Details ID: 058161 Name: GRAFTON AIRPORT AWS Lat: -29.76 Lon: 153.03 Height: 25.09 m
Data from the previous 72 hours. | See also: Recent months for locations in New South Wales
Date/Time
EST
Temp
°C
App
Temp
°C
Dew
Point
Rel
Hum
%
Delta-T
°C
Wind Press
QNH
hPa
Press
MSL
hPa
Rain
since 9 am
mm
Dir
 
Spd
km/h
Gust
km/h
Spd
kts
Gust
kts
01/09:00pm 11.6 11.7 10.2 91 0.7 CALM 0 0 0 0 1021.2 1021.2 0.0
01/08:30pm 12.2 11.4 10.9 92 0.7 SSW 6 11 3 6 1021.1 1021.1 0.0
01/08:00pm 12.4 12.1 10.1 86 1.2 SSW 2 6 1 3 1021.0 1021.0 0.0
01/07:30pm 13.9 13.5 11.2 84 1.4 SSW 4 7 2 4 1020.6 1020.6 0.0
01/07:00pm 14.0 12.9 10.6 80 1.8 SSE 7 9 4 5 1020.3 1020.3 0.0
01/06:30pm 16.5 16.6 11.4 72 2.8 NE 2 6 1 3 1019.5 1019.5 0.0
01/06:00pm 16.0 14.9 10.5 70 2.9 N 7 9 4 5 1019.3 1019.3 0.0
01/05:30pm 17.7 15.7 10.1 61 4.0 NNE 11 13 6 7 1019.1 1019.1 0.0
01/05:00pm 19.1 16.7 10.1 56 4.8 NNE 13 15 7 8 1019.0 1019.0 0.0
01/04:30pm 21.6 18.7 9.5 46 6.5 N 15 19 8 10 1018.9 1018.9 0.0
01/04:00pm 22.6 19.3 8.0 39 7.7 N 15 19 8 10 1018.9 1018.9 0.0
01/03:30pm 23.1 19.4 8.0 38 8.0 N 17 22 9 12 1018.7 1018.7 0.0
01/03:00pm 23.1 19.6 8.8 40 7.6 N 17 20 9 11 1018.9 1018.9 0.0
01/02:30pm 23.1 20.0 8.8 40 7.6 N 15 20 8 11 1019.0 1019.0 0.0
01/02:00pm 22.6 19.5 8.7 41 7.4 N 15 24 8 13 1019.3 1019.3 0.0
01/01:30pm 21.6 19.6 8.8 44 6.8 N 9 19 5 10 1019.8 1019.8 0.0
01/01:00pm 20.9 18.3 9.5 48 6.1 N 13 20 7 11 1020.4 1020.4 0.0
01/12:30pm 20.9 19.2 9.8 49 5.9 N 9 15 5 8 1021.0 1021.0 0.0
01/12:00pm 19.7 18.0 8.4 48 5.9 NNW 7 15 4 8 1021.6 1021.6 0.0
01/11:30am 18.7 17.3 8.9 53 5.1 W 6 13 3 7 1022.3 1022.3 0.0
01/11:00am 18.2 16.2 8.7 54 4.9 NNW 9 13 5 7 1022.8 1022.8 0.0
01/10:30am 16.9 15.6 9.1 60 4.0 WNW 6 11 3 6 1023.2 1023.2 0.0
01/10:00am 15.5 13.7 9.4 67 3.1 NNE 9 13 5 7 1023.3 1023.3 0.0
01/09:30am 13.5 12.1 9.7 78 1.9 N 7 11 4 6 1023.6 1023.6 0.0
01/09:00am 12.2 11.5 8.5 78 1.8 N 2 6 1 3 1023.6 1023.6 0.2
01/08:30am 9.5 8.2 7.8 89 0.8 SW 4 6 2 3 1023.7 1023.7 0.2
01/08:00am 8.1 6.4 7.5 96 0.3 N 6 6 3 3 1023.6 1023.6 0.2
01/07:30am 6.3 5.4 5.9 97 0.2 CALM 0 0 0 0 1023.6 1023.6 0.2
01/07:00am 5.2 4.1 4.9 98 0.1 CALM 0 6 0 3 1023.5 1023.5 0.2
01/06:30am 5.0 3.8 4.7 98 0.1 CALM 0 7 0 4 1023.0 1023.0 0.2
01/06:00am 4.6 3.3 4.2 97 0.2 CALM 0 0 0 0 1022.6 1022.6 0.2
01/05:49am 4.6 3.3 4.0 96 0.3 CALM 0 0 0 0 1022.4 1022.4 0.2
01/05:30am 4.4 3.0 3.7 95 0.3 CALM 0 0 0 0 1022.4 1022.4 0.2
01/05:00am 5.9 4.1 5.6 98 0.1 SSE 4 6 2 3 1022.3 1022.3 0.2
01/04:30am 5.5 4.4 5.1 97 0.2 CALM 0 0 0 0 1022.4 1022.4 0.2
01/04:00am 5.7 4.6 5.3 97 0.2 CALM 0 0 0 0 1022.3 1022.3 0.2
01/03:30am 5.9 4.9 5.6 98 0.1 CALM 0 0 0 0 1022.3 1022.3 0.2
01/03:22am 5.7 4.6 5.3 97 0.2 CALM 0 0 0 0 1022.4 1022.4 0.2
01/03:00am 4.9 3.5 3.7 92 0.5 CALM 0 0 0 0 1022.7 1022.7 0.2
01/02:52am 5.8 4.7 5.1 95 0.3 CALM 0 0 0 0 1022.8 1022.8 0.2
01/02:30am 6.6 5.7 6.0 96 0.3 CALM 0 0 0 0 1022.9 1022.9 0.2
01/02:00am 6.8 5.9 6.1 95 0.3 CALM 0 0 0 0 1023.0 1023.0 0.2
01/01:30am 7.5 6.8 6.9 96 0.3 CALM 0 0 0 0 1023.4 1023.4 0.2
01/01:00am 7.2 5.6 6.5 95 0.3 S 4 6 2 3 1023.4 1023.4 0.2
01/12:30am 7.1 6.2 6.2 94 0.4 CALM 0 0 0 0 1023.4 1023.4 0.2
01/12:00am 8.1 7.1 7.3 95 0.4 SSW 2 7 1 4 1023.2 1023.2 0.2
 
Date/Time
EST
Temp
°C
App
Temp
°C
Dew
Point
Rel
Hum
%
Delta-T
°C
Wind Press
QNH
hPa
Press
MSL
hPa
Rain
since 9 am
mm
Dir
 
Spd
km/h
Gust
km/h
Spd
kts
Gust
kts
31/11:30pm 8.0 7.3 7.1 94 0.4 CALM 0 0 0 0 1023.2 1023.2 0.2
31/11:00pm 8.3 6.9 7.4 94 0.4 SSW 4 7 2 4 1023.2 1023.2 0.2
31/10:30pm 8.6 6.7 7.5 93 0.5 SSW 7 9 4 5 1023.1 1023.1 0.2
31/10:00pm 9.2 7.9 7.5 89 0.8 SSW 4 6 2 3 1023.2 1023.2 0.2
31/09:30pm 9.6 7.4 7.7 88 0.9 SSW 9 11 5 6 1023.1 1023.1 0.2
31/09:00pm 9.8 8.0 7.9 88 0.9 SSW 7 11 4 6 1022.8 1022.8 0.2
31/08:30pm 10.6 8.9 8.2 85 1.2 SSW 7 9 4 5 1022.6 1022.6 0.2
31/08:00pm 11.3 8.8 8.3 82 1.5 SSW 11 13 6 7 1022.3 1022.3 0.2
31/07:30pm 11.5 9.7 7.8 78 1.8 SSW 7 9 4 5 1021.9 1021.9 0.2
31/07:00pm 13.2 12.8 8.1 71 2.5 CALM 0 0 0 0 1021.5 1021.5 0.2
31/06:30pm 14.5 13.2 7.5 63 3.5 SE 4 9 2 5 1021.0 1021.0 0.2
31/06:00pm 15.5 14.9 7.5 59 4.0 CALM 0 0 0 0 1020.7 1020.7 0.2
31/05:30pm 17.0 15.1 7.6 54 4.7 E 7 11 4 6 1020.3 1020.3 0.2
31/05:00pm 18.7 15.7 7.8 49 5.6 E 13 17 7 9 1019.8 1019.8 0.2
31/04:30pm 21.1 19.1 7.3 41 7.1 NNE 7 11 4 6 1019.5 1019.5 0.2
31/04:00pm 22.1 19.3 5.1 33 8.4 N 9 13 5 7 1019.2 1019.2 0.2
31/03:30pm 22.4 19.3 5.4 33 8.5 N 11 17 6 9 1019.4 1019.4 0.2
31/03:00pm 23.1 20.6 4.6 30 9.1 N 7 13 4 7 1019.5 1019.5 0.2
31/02:30pm 22.7 19.6 3.8 29 9.2 NE 9 13 5 7 1019.6 1019.6 0.2
31/02:00pm 22.0 19.2 3.2 29 9.0 S 7 13 4 7 1019.9 1019.9 0.2
31/01:30pm 22.7 20.3 4.2 30 9.1 SW 6 15 3 8 1020.1 1020.1 0.2
31/01:00pm 21.8 19.4 4.4 32 8.5 W 6 9 3 5 1020.5 1020.5 0.2
31/12:30pm 20.9 18.3 4.0 33 8.1 SSE 7 13 4 7 1021.1 1021.1 0.2
31/12:00pm 21.1 18.9 5.5 36 7.7 WSW 6 13 3 7 1021.6 1021.6 0.0
31/11:30am 20.0 17.2 5.3 38 7.2 WNW 9 11 5 6 1022.0 1022.0 0.0
31/11:00am 19.7 18.6 8.4 48 5.9 WSW 4 11 2 6 1022.3 1022.3 0.0
31/10:30am 17.6 16.8 9.5 59 4.2 SW 4 7 2 4 1022.6 1022.6 0.0
31/10:00am 16.2 15.8 9.6 65 3.4 NW 2 6 1 3 1022.9 1022.9 0.0
31/09:30am 14.9 15.1 10.7 76 2.2 CALM 0 0 0 0 1023.0 1023.0 0.0
31/09:00am 13.0 12.4 10.5 85 1.3 ENE 4 7 2 4 1023.0 1023.0 0.0
31/08:30am 11.1 11.1 9.7 91 0.7 CALM 0 0 0 0 1023.0 1023.0 0.0
31/08:22am 10.8 10.8 9.9 94 0.5 CALM 0 6 0 3 1022.9 1022.9 0.0
31/08:15am 10.4 9.6 9.8 96 0.3 ENE 4 7 2 4 1022.9 1022.9 0.0
31/08:09am 10.0 8.8 9.7 98 0.2 ENE 6 7 3 4 1022.9 1022.9 0.0
31/08:00am 9.2 7.6 8.7 97 0.2 ENE 7 9 4 5 1022.7 1022.7 0.0
31/07:53am 9.6 9.1 9.5 99 0.0 NE 2 9 1 5 1022.7 1022.7 0.0
31/07:30am 9.4 8.9 9.3 99 0.0 S 2 9 1 5 1022.4 1022.4 0.0
31/07:19am 8.6 6.9 8.5 99 0.0 SSE 7 11 4 6 1022.4 1022.4 0.0
31/07:00am 6.9 5.0 6.8 99 0.0 E 6 7 3 4 1022.1 1022.1 0.0
31/06:31am 6.4 4.2 6.3 99 0.0 WNW 7 11 4 6 1021.8 1021.8 0.0
31/06:30am 6.7 4.6 6.6 99 0.0 WNW 7 11 4 6 1021.9 1021.9 0.0
31/06:27am 7.0 5.1 6.9 99 0.0 W 6 7 3 4 1021.9 1021.9 0.0
31/06:00am 7.2 5.4 7.1 99 0.0 ESE 6 7 3 4 1021.6 1021.6 0.0
31/05:30am 7.2 6.5 6.9 98 0.1 CALM 0 0 0 0 1021.1 1021.1 0.0
31/05:04am 7.6 7.0 7.5 99 0.0 CALM 0 0 0 0 1021.0 1021.0 0.0
31/05:00am 7.7 7.1 7.6 99 0.0 CALM 0 0 0 0 1020.9 1020.9 0.0
31/04:30am 8.3 7.9 8.2 99 0.0 CALM 0 0 0 0 1021.0 1021.0 0.0
31/04:00am 8.2 7.8 8.1 99 0.0 CALM 0 0 0 0 1020.8 1020.8 0.0
31/03:30am 9.0 7.6 8.9 99 0.0 NE 6 7 3 4 1021.0 1021.0 0.0
31/03:00am 9.2 8.6 9.1 99 0.0 SSW 2 7 1 4 1021.6 1021.6 0.0
31/02:30am 9.4 9.3 9.3 99 0.0 CALM 0 0 0 0 1021.7 1021.7 0.0
31/02:00am 9.0 8.7 8.7 98 0.1 CALM 0 0 0 0 1022.1 1022.1 0.0
31/01:52am 8.6 8.2 8.2 97 0.2 CALM 0 0 0 0 1022.0 1022.0 0.0
31/01:47am 8.4 7.9 7.8 96 0.3 CALM 0 0 0 0 1022.1 1022.1 0.0
31/01:33am 8.5 8.0 7.9 96 0.3 CALM 0 0 0 0 1022.2 1022.2 0.0
31/01:32am 8.4 7.9 7.8 96 0.3 CALM 0 0 0 0 1022.2 1022.2 0.0
31/01:30am 8.3 7.8 7.7 96 0.3 CALM 0 0 0 0 1022.2 1022.2 0.0
31/01:00am 9.4 9.2 8.9 97 0.2 CALM 0 0 0 0 1022.7 1022.7 0.0
31/12:30am 9.2 8.9 8.7 97 0.2 CALM 0 6 0 3 1023.0 1023.0 0.0
31/12:00am 9.2 8.8 8.4 95 0.4 CALM 0 0 0 0 1022.9 1022.9 0.0
 
Date/Time
EST
Temp
°C
App
Temp
°C
Dew
Point
Rel
Hum
%
Delta-T
°C
Wind Press
QNH
hPa
Press
MSL
hPa
Rain
since 9 am
mm
Dir
 
Spd
km/h
Gust
km/h
Spd
kts
Gust
kts
30/11:30pm 9.3 8.5 8.2 93 0.5 SSW 2 7 1 4 1022.9 1022.9 0.0
30/11:00pm 10.6 10.7 10.0 96 0.3 CALM 0 0 0 0 1023.2 1023.2 0.0
30/10:37pm 11.3 11.6 11.0 98 0.2 CALM 0 0 0 0 1023.3 1023.3 0.0
30/10:30pm 10.7 10.8 10.2 97 0.3 CALM 0 0 0 0 1023.3 1023.3 0.0
30/10:18pm 10.8 10.9 10.2 96 0.3 CALM 0 0 0 0 1023.4 1023.4 0.0
30/10:00pm 11.3 11.6 10.8 97 0.3 CALM 0 0 0 0 1023.5 1023.5 0.0
30/09:30pm 12.1 12.6 11.5 96 0.3 CALM 0 0 0 0 1023.8 1023.8 0.0
30/09:00pm 12.2 11.5 11.3 94 0.5 NNE 6 7 3 4 1023.6 1023.6 0.0
30/08:30pm 12.2 11.3 11.3 94 0.5 NNE 7 9 4 5 1023.6 1023.6 0.0
30/08:00pm 12.1 10.3 10.8 92 0.7 NNE 11 15 6 8 1023.5 1023.5 0.0
30/07:30pm 12.3 11.4 10.5 89 0.9 NNE 6 7 3 4 1023.6 1023.6 0.0
30/07:00pm 12.3 10.8 10.5 89 0.9 N 9 11 5 6 1023.6 1023.6 0.0
30/06:30pm 14.7 12.6 11.3 80 1.8 NNE 13 19 7 10 1023.4 1023.4 0.0
30/06:00pm 15.6 13.6 11.4 76 2.2 NE 13 15 7 8 1023.3 1023.3 0.0
30/05:30pm 16.1 14.5 10.2 68 3.1 NE 9 13 5 7 1023.5 1023.5 0.0
30/05:00pm 16.7 14.3 10.1 65 3.5 NNE 13 17 7 9 1023.2 1023.2 0.0
30/04:30pm 19.1 16.7 9.9 55 4.9 N 13 19 7 10 1023.1 1023.1 0.0
30/04:00pm 19.9 17.4 9.8 52 5.4 N 13 17 7 9 1023.3 1023.3 0.0
30/03:30pm 20.4 17.2 9.9 51 5.6 N 17 28 9 15 1023.1 1023.1 0.0
30/03:00pm 20.6 17.1 10.1 51 5.6 NNE 19 24 10 13 1023.3 1023.3 0.0
30/02:30pm 20.4 17.6 9.9 51 5.6 N 15 22 8 12 1023.5 1023.5 0.0
30/02:00pm 20.2 18.3 10.6 54 5.2 N 11 19 6 10 1024.0 1024.0 0.0
30/01:30pm 19.6 17.0 9.2 51 5.5 N 13 17 7 9 1024.7 1024.7 0.0
30/01:00pm 19.6 16.8 8.6 49 5.7 NNW 13 20 7 11 1025.3 1025.3 0.0
30/12:30pm 19.3 16.9 8.6 50 5.6 NNW 11 20 6 11 1025.7 1025.7 0.0
30/12:00pm 19.8 18.5 10.0 53 5.2 NW 7 17 4 9 1026.4 1026.4 0.0
30/11:30am 19.1 17.4 9.9 55 4.9 WNW 9 13 5 7 1027.2 1027.2 0.0
30/11:00am 17.9 16.4 9.3 57 4.5 SW 7 13 4 7 1027.7 1027.7 0.0
30/10:30am 16.9 15.0 9.1 60 4.0 WSW 9 13 5 7 1028.2 1028.2 0.0
30/10:00am 15.7 14.5 9.6 67 3.1 WSW 6 9 3 5 1028.6 1028.6 0.0
30/09:30am 14.4 13.9 9.2 71 2.7 WSW 2 7 1 4 1028.7 1028.7 0.0
30/09:00am 13.6 13.2 9.8 78 1.9 ENE 2 6 1 3 1028.8 1028.8 0.0
30/08:30am 12.0 11.8 9.0 82 1.5 CALM 0 0 0 0 1029.0 1029.0 0.0
30/08:00am 10.0 9.4 8.9 93 0.5 NNE 2 7 1 4 1029.0 1029.0 0.0
30/07:30am 8.0 7.5 7.9 99 0.0 CALM 0 0 0 0 1028.8 1028.8 0.0
30/07:00am 6.8 6.0 6.7 99 0.0 CALM 0 4 0 2 1028.3 1028.3 0.0
30/06:30am 6.0 3.9 5.6 97 0.2 WSW 6 9 3 5 1027.9 1027.9 0.0
30/06:17am 6.8 6.0 6.4 97 0.2 CALM 0 0 0 0 1027.9 1027.9 0.0
30/06:00am 6.0 4.6 5.3 95 0.3 NNE 2 6 1 3 1028.0 1028.0 0.0
30/05:52am 6.4 4.3 5.8 96 0.3 NNE 6 7 3 4 1028.0 1028.0 0.0
30/05:30am 7.1 5.0 6.8 98 0.1 S 7 9 4 5 1027.6 1027.6 0.0
30/05:00am 7.2 6.5 6.9 98 0.1 CALM 0 0 0 0 1028.0 1028.0 0.0
30/04:45am 7.2 6.1 6.9 98 0.1 E 2 7 1 4 1028.2 1028.2 0.0
30/04:30am 6.5 5.2 6.1 97 0.2 SSE 2 11 1 6 1028.2 1028.2 0.0
30/04:00am 7.2 6.5 6.8 97 0.2 CALM 0 0 0 0 1027.9 1027.9 0.0
30/03:30am 7.1 6.3 6.4 95 0.3 CALM 0 0 0 0 1028.4 1028.4 0.0
30/03:29am 7.1 6.3 6.4 95 0.3 CALM 0 0 0 0 1028.4 1028.4 0.0
30/03:00am 8.5 7.1 7.4 93 0.5 SSE 4 6 2 3 1028.3 1028.3 0.0
30/02:30am 8.8 7.0 7.9 94 0.4 SSE 7 9 4 5 1028.8 1028.8 0.0
30/02:00am 8.4 6.8 8.0 97 0.2 SSW 6 7 3 4 1029.2 1029.2 0.0
30/01:30am 8.8 7.1 8.5 98 0.1 SSW 7 11 4 6 1029.5 1029.5 0.0
30/01:00am 8.5 6.7 8.1 97 0.2 SE 7 9 4 5 1029.6 1029.6 0.0
30/12:30am 8.2 7.3 7.8 97 0.2 SSW 2 7 1 4 1029.8 1029.8 0.0
30/12:17am 8.2 6.6 7.8 97 0.2 SSW 6 7 3 4 1029.9 1029.9 0.0
30/12:00am 7.9 7.2 7.0 94 0.4 CALM 0 0 0 0 1029.9 1029.9 0.0
 
Date/Time
EST
Temp
°C
App
Temp
°C
Dew
Point
Rel
Hum
%
Delta-T
°C
Wind Press
QNH
hPa
Press
MSL
hPa
Rain
since 9 am
mm
Dir
 
Spd
km/h
Gust
km/h
Spd
kts
Gust
kts
29/11:33pm 8.4 7.8 7.3 93 0.5 CALM 0 4 0 2 1029.9 1029.9 0.0
29/11:30pm 8.6 7.7 7.7 94 0.4 S 2 6 1 3 1029.9 1029.9 0.0
29/11:00pm 9.5 7.9 8.7 95 0.4 SSW 7 7 4 4 1030.4 1030.4 0.0
29/10:30pm 9.6 7.7 9.0 96 0.3 SSW 9 11 5 6 1030.5 1030.5 0.0
29/10:00pm 10.3 9.0 9.2 93 0.5 SSW 6 7 3 4 1030.4 1030.4 0.0

Other Formats:

Comma delimited format used in spreadsheet applications
http://www.bom.gov.au/fwo/IDN60801/IDN60801.95570.axf

JavaScript Object Notation format (JSON) in row-major order
http://www.bom.gov.au/fwo/IDN60801/IDN60801.95570.json